BTK729 WAPP-WASS
Flight info
| Callsign | BTK729 |
|---|---|
| Flight time | 0h 46m |
| Altitude | 33000 |
| Route | WAPP/22 FALAM1D FALAM W44 RUMIT RUMIT1C |
| Aircraft | A20N/M-VGDW/C |
Departure
| Time | 2026-04-16 20:53 |
|---|---|
| Airport | Pattimura International Airport (WAPP) |
Arrival
| Time | 2026-04-16 21:40 |
|---|---|
| Airport | Domine Eduard Osok Airport (WASS) |
| Time | Latitude | Longitude | Altitude | Speed | Heading |
|---|---|---|---|---|---|
| 2026-04-16 20:40 | -3.70628 | 128.08817 | 89 ft | 0 kts | 0° |
| 2026-04-16 20:42 | -3.70630 | 128.08817 | 88 ft | 1 kts | 0° |
| 2026-04-16 20:43 | -3.70645 | 128.08817 | 88 ft | 2 kts | 360° |
| 2026-04-16 20:43 | -3.70660 | 128.08817 | 87 ft | 2 kts | 360° |
| 2026-04-16 20:43 | -3.70675 | 128.08817 | 86 ft | 2 kts | 0° |
| 2026-04-16 20:43 | -3.70688 | 128.08817 | 85 ft | 2 kts | 30° |
| 2026-04-16 20:44 | -3.70697 | 128.08804 | 85 ft | 2 kts | 84° |
| 2026-04-16 20:44 | -3.70696 | 128.08794 | 85 ft | 0 kts | 96° |
| 2026-04-16 20:44 | -3.70696 | 128.08791 | 85 ft | 0 kts | 93° |
| 2026-04-16 20:47 | -3.70696 | 128.08794 | 85 ft | 1 kts | 93° |
| 2026-04-16 20:47 | -3.70696 | 128.08807 | 85 ft | 2 kts | 91° |
| 2026-04-16 20:47 | -3.70697 | 128.08829 | 85 ft | 3 kts | 90° |
| 2026-04-16 20:48 | -3.70697 | 128.08865 | 85 ft | 6 kts | 90° |
| 2026-04-16 20:48 | -3.70698 | 128.08914 | 85 ft | 7 kts | 90° |
| 2026-04-16 20:48 | -3.70698 | 128.08972 | 84 ft | 8 kts | 90° |
| 2026-04-16 20:48 | -3.70698 | 128.09039 | 84 ft | 10 kts | 94° |
| 2026-04-16 20:49 | -3.70745 | 128.09116 | 79 ft | 15 kts | 131° |
| 2026-04-16 20:49 | -3.70783 | 128.09210 | 75 ft | 15 kts | 51° |
| 2026-04-16 20:49 | -3.70707 | 128.09288 | 75 ft | 16 kts | 45° |
| 2026-04-16 20:49 | -3.70626 | 128.09369 | 74 ft | 16 kts | 45° |
| 2026-04-16 20:50 | -3.70543 | 128.09451 | 72 ft | 17 kts | 44° |
| 2026-04-16 20:50 | -3.70451 | 128.09543 | 69 ft | 19 kts | 45° |
| 2026-04-16 20:50 | -3.70349 | 128.09644 | 65 ft | 21 kts | 44° |
| 2026-04-16 20:50 | -3.70240 | 128.09720 | 62 ft | 11 kts | 64° |
| 2026-04-16 20:51 | -3.70268 | 128.09724 | 62 ft | 7 kts | 221° |
| 2026-04-16 20:51 | -3.70277 | 128.09717 | 62 ft | 0 kts | 224° |
| 2026-04-16 20:52 | -3.70287 | 128.09708 | 63 ft | 16 kts | 224° |
| 2026-04-16 20:53 | -3.70564 | 128.09430 | 73 ft | 93 kts | 226° |
| 2026-04-16 20:53 | -3.71184 | 128.08810 | 67 ft | 157 kts | 225° |
| 2026-04-16 20:53 | -3.72035 | 128.07958 | 381 ft | 181 kts | 225° |
| 2026-04-16 20:53 | -3.72906 | 128.07077 | 1157 ft | 178 kts | 224° |
| 2026-04-16 20:54 | -3.73771 | 128.06220 | 1943 ft | 178 kts | 224° |
| 2026-04-16 20:54 | -3.74680 | 128.05309 | 2382 ft | 194 kts | 221° |
| 2026-04-16 20:54 | -3.75823 | 128.04478 | 2844 ft | 211 kts | 207° |
| 2026-04-16 20:54 | -3.77226 | 128.03914 | 3315 ft | 227 kts | 193° |
| 2026-04-16 20:55 | -3.78853 | 128.03720 | 3859 ft | 242 kts | 178° |
| 2026-04-16 20:55 | -3.80526 | 128.03995 | 4622 ft | 246 kts | 162° |
| 2026-04-16 20:55 | -3.82077 | 128.04727 | 5415 ft | 250 kts | 147° |
| 2026-04-16 20:55 | -3.83383 | 128.05896 | 6174 ft | 255 kts | 130° |
| 2026-04-16 20:56 | -3.84313 | 128.07414 | 6916 ft | 261 kts | 114° |
| 2026-04-16 20:56 | -3.84765 | 128.09164 | 7626 ft | 267 kts | 96° |
| 2026-04-16 20:56 | -3.84671 | 128.11026 | 8300 ft | 273 kts | 78° |
| 2026-04-16 20:56 | -3.84005 | 128.12830 | 8938 ft | 280 kts | 63° |
| 2026-04-16 20:57 | -3.83061 | 128.14572 | 9369 ft | 295 kts | 62° |
| 2026-04-16 20:57 | -3.82022 | 128.16394 | 9795 ft | 308 kts | 61° |
| 2026-04-16 20:57 | -3.80952 | 128.18265 | 10394 ft | 314 kts | 61° |
| 2026-04-16 20:57 | -3.79849 | 128.20236 | 10770 ft | 329 kts | 62° |
| 2026-04-16 20:58 | -3.78737 | 128.22264 | 11059 ft | 346 kts | 62° |
| 2026-04-16 20:58 | -3.77549 | 128.24445 | 11335 ft | 362 kts | 62° |
| 2026-04-16 20:58 | -3.76330 | 128.26691 | 11637 ft | 375 kts | 62° |
| 2026-04-16 20:58 | -3.74995 | 128.28967 | 12167 ft | 381 kts | 56° |
| 2026-04-16 20:59 | -3.73294 | 128.30997 | 12752 ft | 385 kts | 45° |
| 2026-04-16 20:59 | -3.71228 | 128.32730 | 13357 ft | 386 kts | 37° |
| 2026-04-16 20:59 | -3.69040 | 128.34302 | 13926 ft | 389 kts | 35° |
| 2026-04-16 20:59 | -3.66813 | 128.35867 | 14521 ft | 390 kts | 35° |
| 2026-04-16 21:00 | -3.64595 | 128.37434 | 15079 ft | 393 kts | 36° |
| 2026-04-16 21:00 | -3.62386 | 128.39011 | 15619 ft | 394 kts | 36° |
| 2026-04-16 21:00 | -3.60148 | 128.40617 | 16152 ft | 396 kts | 36° |
| 2026-04-16 21:00 | -3.57901 | 128.42232 | 16644 ft | 399 kts | 36° |
| 2026-04-16 21:01 | -3.55611 | 128.43883 | 17142 ft | 401 kts | 37° |
| 2026-04-16 21:01 | -3.53338 | 128.45514 | 17628 ft | 404 kts | 37° |
| 2026-04-16 21:01 | -3.51048 | 128.47162 | 18090 ft | 406 kts | 36° |
| 2026-04-16 21:01 | -3.48764 | 128.48805 | 18549 ft | 408 kts | 36° |
| 2026-04-16 21:02 | -3.46442 | 128.50476 | 19011 ft | 410 kts | 36° |
| 2026-04-16 21:02 | -3.44125 | 128.52145 | 19480 ft | 412 kts | 36° |
| 2026-04-16 21:02 | -3.41772 | 128.53841 | 19919 ft | 414 kts | 36° |
| 2026-04-16 21:03 | -3.37092 | 128.57208 | 20735 ft | 420 kts | 35° |
| 2026-04-16 21:03 | -3.34701 | 128.58928 | 21134 ft | 422 kts | 35° |
| 2026-04-16 21:03 | -3.32283 | 128.60664 | 21523 ft | 425 kts | 35° |
| 2026-04-16 21:03 | -3.29896 | 128.62376 | 21908 ft | 427 kts | 35° |
| 2026-04-16 21:04 | -3.27461 | 128.64127 | 22291 ft | 430 kts | 34° |
| 2026-04-16 21:04 | -3.25013 | 128.65887 | 22660 ft | 432 kts | 34° |
| 2026-04-16 21:04 | -3.22569 | 128.67642 | 23034 ft | 434 kts | 34° |
| 2026-04-16 21:04 | -3.20103 | 128.69411 | 23420 ft | 436 kts | 35° |
| 2026-04-16 21:05 | -3.17649 | 128.71179 | 23800 ft | 438 kts | 34° |
| 2026-04-16 21:05 | -3.15174 | 128.72961 | 24172 ft | 439 kts | 35° |
| 2026-04-16 21:05 | -3.12676 | 128.74757 | 24521 ft | 441 kts | 34° |
| 2026-04-16 21:05 | -3.10182 | 128.76552 | 24851 ft | 444 kts | 35° |
| 2026-04-16 21:06 | -3.07700 | 128.78372 | 25195 ft | 445 kts | 37° |
| 2026-04-16 21:06 | -3.05295 | 128.80350 | 25534 ft | 447 kts | 40° |
| 2026-04-16 21:06 | -3.03017 | 128.82494 | 25863 ft | 449 kts | 45° |
| 2026-04-16 21:06 | -3.00853 | 128.84787 | 26246 ft | 449 kts | 47° |
| 2026-04-16 21:07 | -2.98751 | 128.87082 | 26716 ft | 447 kts | 47° |
| 2026-04-16 21:07 | -2.96676 | 128.89359 | 27167 ft | 445 kts | 47° |
| 2026-04-16 21:07 | -2.94601 | 128.91637 | 27596 ft | 443 kts | 47° |
| 2026-04-16 21:07 | -2.92514 | 128.93922 | 28055 ft | 441 kts | 47° |
| 2026-04-16 21:08 | -2.90471 | 128.96158 | 28471 ft | 439 kts | 47° |
| 2026-04-16 21:08 | -2.88403 | 128.98419 | 28877 ft | 439 kts | 47° |
| 2026-04-16 21:08 | -2.86354 | 129.00656 | 29308 ft | 437 kts | 47° |
| 2026-04-16 21:08 | -2.84296 | 129.02905 | 29738 ft | 436 kts | 47° |
| 2026-04-16 21:09 | -2.82240 | 129.05153 | 30188 ft | 434 kts | 47° |
| 2026-04-16 21:09 | -2.80206 | 129.07373 | 30617 ft | 432 kts | 47° |
| 2026-04-16 21:09 | -2.78186 | 129.09580 | 31045 ft | 431 kts | 47° |
| 2026-04-16 21:09 | -2.76173 | 129.11778 | 31419 ft | 431 kts | 47° |
| 2026-04-16 21:10 | -2.74150 | 129.13986 | 31735 ft | 432 kts | 47° |
| 2026-04-16 21:10 | -2.72098 | 129.16225 | 32048 ft | 433 kts | 47° |
| 2026-04-16 21:10 | -2.70061 | 129.18449 | 32360 ft | 433 kts | 47° |
| 2026-04-16 21:10 | -2.68045 | 129.20651 | 32667 ft | 434 kts | 47° |
| 2026-04-16 21:11 | -2.66018 | 129.22867 | 32910 ft | 434 kts | 47° |
| 2026-04-16 21:11 | -2.61929 | 129.27333 | 32918 ft | 434 kts | 47° |
| 2026-04-16 21:12 | -2.57830 | 129.31807 | 32915 ft | 435 kts | 47° |
| 2026-04-16 21:12 | -2.53761 | 129.36250 | 32912 ft | 434 kts | 47° |
| 2026-04-16 21:13 | -2.49666 | 129.40723 | 32904 ft | 435 kts | 47° |
| 2026-04-16 21:13 | -2.45595 | 129.45167 | 32902 ft | 436 kts | 47° |
| 2026-04-16 21:14 | -2.41495 | 129.49655 | 32900 ft | 437 kts | 47° |
| 2026-04-16 21:14 | -2.37408 | 129.54129 | 32898 ft | 436 kts | 46° |
| 2026-04-16 21:15 | -2.33301 | 129.58604 | 32898 ft | 437 kts | 46° |
| 2026-04-16 21:15 | -2.29184 | 129.63092 | 32894 ft | 437 kts | 46° |
| 2026-04-16 21:16 | -2.25063 | 129.67590 | 32891 ft | 438 kts | 46° |
| 2026-04-16 21:16 | -2.20960 | 129.72070 | 32893 ft | 439 kts | 46° |
| 2026-04-16 21:17 | -2.16817 | 129.76594 | 32893 ft | 439 kts | 46° |
| 2026-04-16 21:17 | -2.12698 | 129.81091 | 32892 ft | 440 kts | 46° |
| 2026-04-16 21:18 | -2.08567 | 129.85602 | 32893 ft | 441 kts | 46° |
| 2026-04-16 21:18 | -2.04435 | 129.90114 | 32895 ft | 441 kts | 46° |
| 2026-04-16 21:19 | -2.00283 | 129.94644 | 32898 ft | 441 kts | 46° |
| 2026-04-16 21:19 | -1.98210 | 129.96907 | 32474 ft | 445 kts | 46° |
| 2026-04-16 21:19 | -1.96102 | 129.99210 | 31664 ft | 448 kts | 47° |
| 2026-04-16 21:19 | -1.94018 | 130.01486 | 30902 ft | 449 kts | 47° |
| 2026-04-16 21:20 | -1.91902 | 130.03796 | 30079 ft | 452 kts | 47° |
| 2026-04-16 21:20 | -1.89803 | 130.06090 | 29276 ft | 454 kts | 47° |
| 2026-04-16 21:20 | -1.87672 | 130.08418 | 28470 ft | 456 kts | 47° |
| 2026-04-16 21:20 | -1.85505 | 130.10786 | 27651 ft | 459 kts | 47° |
| 2026-04-16 21:21 | -1.83370 | 130.13118 | 26793 ft | 462 kts | 47° |
| 2026-04-16 21:21 | -1.81212 | 130.15503 | 25872 ft | 467 kts | 49° |
| 2026-04-16 21:21 | -1.79122 | 130.18019 | 25124 ft | 466 kts | 50° |
| 2026-04-16 21:21 | -1.77095 | 130.20525 | 24519 ft | 463 kts | 50° |
| 2026-04-16 21:22 | -1.75100 | 130.23001 | 23935 ft | 459 kts | 50° |
| 2026-04-16 21:22 | -1.73108 | 130.25475 | 23372 ft | 455 kts | 50° |
| 2026-04-16 21:22 | -1.71131 | 130.27930 | 22810 ft | 451 kts | 50° |
| 2026-04-16 21:22 | -1.69188 | 130.30341 | 22250 ft | 447 kts | 50° |
| 2026-04-16 21:23 | -1.67237 | 130.32758 | 21707 ft | 444 kts | 50° |
| 2026-04-16 21:23 | -1.65305 | 130.35153 | 21183 ft | 439 kts | 50° |
| 2026-04-16 21:23 | -1.63413 | 130.37499 | 20665 ft | 435 kts | 50° |
| 2026-04-16 21:23 | -1.61506 | 130.39862 | 20113 ft | 432 kts | 50° |
| 2026-04-16 21:24 | -1.59651 | 130.42162 | 19568 ft | 429 kts | 50° |
| 2026-04-16 21:24 | -1.57765 | 130.44501 | 19021 ft | 425 kts | 51° |
| 2026-04-16 21:24 | -1.55935 | 130.46768 | 18508 ft | 421 kts | 51° |
| 2026-04-16 21:24 | -1.54102 | 130.49040 | 17994 ft | 417 kts | 51° |
| 2026-04-16 21:25 | -1.52294 | 130.51282 | 17483 ft | 413 kts | 51° |
| 2026-04-16 21:25 | -1.50510 | 130.53494 | 16972 ft | 409 kts | 51° |
| 2026-04-16 21:25 | -1.48727 | 130.55707 | 16422 ft | 407 kts | 51° |
| 2026-04-16 21:25 | -1.46969 | 130.57887 | 15869 ft | 405 kts | 51° |
| 2026-04-16 21:26 | -1.45197 | 130.60086 | 15277 ft | 403 kts | 51° |
| 2026-04-16 21:26 | -1.43456 | 130.62247 | 14708 ft | 402 kts | 51° |
| 2026-04-16 21:26 | -1.41693 | 130.64433 | 14120 ft | 401 kts | 51° |
| 2026-04-16 21:26 | -1.39949 | 130.66595 | 13532 ft | 400 kts | 51° |
| 2026-04-16 21:27 | -1.38207 | 130.68756 | 12976 ft | 398 kts | 51° |
| 2026-04-16 21:27 | -1.36483 | 130.70891 | 12425 ft | 397 kts | 51° |
| 2026-04-16 21:27 | -1.34752 | 130.73036 | 11908 ft | 393 kts | 51° |
| 2026-04-16 21:27 | -1.33037 | 130.75162 | 11364 ft | 390 kts | 51° |
| 2026-04-16 21:28 | -1.31359 | 130.77243 | 10900 ft | 385 kts | 51° |
| 2026-04-16 21:28 | -1.29690 | 130.79312 | 10660 ft | 373 kts | 51° |
| 2026-04-16 21:28 | -1.28086 | 130.81303 | 10495 ft | 360 kts | 51° |
| 2026-04-16 21:28 | -1.26554 | 130.83202 | 10333 ft | 348 kts | 51° |
| 2026-04-16 21:29 | -1.25061 | 130.85054 | 10133 ft | 337 kts | 51° |
| 2026-04-16 21:29 | -1.23602 | 130.86864 | 10015 ft | 325 kts | 51° |
| 2026-04-16 21:29 | -1.22200 | 130.88603 | 9758 ft | 318 kts | 51° |
| 2026-04-16 21:29 | -1.20825 | 130.90308 | 9448 ft | 314 kts | 51° |
| 2026-04-16 21:30 | -1.19447 | 130.92017 | 9012 ft | 314 kts | 51° |
| 2026-04-16 21:30 | -1.18077 | 130.93713 | 8653 ft | 312 kts | 51° |
| 2026-04-16 21:30 | -1.16732 | 130.95364 | 8328 ft | 309 kts | 47° |
| 2026-04-16 21:30 | -1.15071 | 130.96690 | 7935 ft | 305 kts | 25° |
| 2026-04-16 21:31 | -1.13086 | 130.97383 | 7588 ft | 298 kts | 13° |
| 2026-04-16 21:31 | -1.11105 | 130.97902 | 7242 ft | 291 kts | 12° |
| 2026-04-16 21:31 | -1.09151 | 130.98406 | 6906 ft | 285 kts | 12° |
| 2026-04-16 21:31 | -1.07256 | 130.98903 | 6574 ft | 279 kts | 12° |
| 2026-04-16 21:32 | -1.05395 | 130.99400 | 6249 ft | 273 kts | 13° |
| 2026-04-16 21:32 | -1.03576 | 130.99892 | 5937 ft | 267 kts | 13° |
| 2026-04-16 21:32 | -1.01793 | 131.00378 | 5640 ft | 264 kts | 13° |
| 2026-04-16 21:32 | -1.00013 | 131.00867 | 5332 ft | 263 kts | 13° |
| 2026-04-16 21:33 | -0.98237 | 131.01353 | 5019 ft | 262 kts | 13° |
| 2026-04-16 21:33 | -0.96493 | 131.01831 | 4721 ft | 261 kts | 14° |
| 2026-04-16 21:33 | -0.94740 | 131.02313 | 4418 ft | 260 kts | 14° |
| 2026-04-16 21:33 | -0.92981 | 131.02797 | 4115 ft | 260 kts | 14° |
| 2026-04-16 21:34 | -0.91229 | 131.03278 | 3812 ft | 259 kts | 14° |
| 2026-04-16 21:34 | -0.89491 | 131.03757 | 3566 ft | 255 kts | 14° |
| 2026-04-16 21:34 | -0.87842 | 131.04279 | 3506 ft | 243 kts | 26° |
| 2026-04-16 21:34 | -0.86663 | 131.05411 | 3426 ft | 238 kts | 65° |
| 2026-04-16 21:35 | -0.86437 | 131.07008 | 3186 ft | 235 kts | 103° |
| 2026-04-16 21:35 | -0.86940 | 131.08559 | 2956 ft | 234 kts | 111° |
| 2026-04-16 21:35 | -0.87481 | 131.10084 | 2711 ft | 229 kts | 111° |
| 2026-04-16 21:35 | -0.88007 | 131.11549 | 2471 ft | 222 kts | 106° |
| 2026-04-16 21:36 | -0.88323 | 131.13005 | 2405 ft | 211 kts | 98° |
| 2026-04-16 21:36 | -0.88478 | 131.14438 | 2512 ft | 200 kts | 95° |
| 2026-04-16 21:36 | -0.88565 | 131.15788 | 2376 ft | 189 kts | 93° |
| 2026-04-16 21:36 | -0.88640 | 131.17088 | 2106 ft | 182 kts | 94° |
| 2026-04-16 21:37 | -0.88714 | 131.18291 | 1851 ft | 169 kts | 94° |
| 2026-04-16 21:37 | -0.88789 | 131.19424 | 1640 ft | 156 kts | 94° |
| 2026-04-16 21:37 | -0.88859 | 131.20470 | 1455 ft | 145 kts | 95° |
| 2026-04-16 21:37 | -0.88925 | 131.21452 | 1260 ft | 140 kts | 94° |
| 2026-04-16 21:38 | -0.88989 | 131.22415 | 1088 ft | 139 kts | 94° |
| 2026-04-16 21:38 | -0.89053 | 131.23375 | 898 ft | 139 kts | 95° |
| 2026-04-16 21:38 | -0.89117 | 131.24332 | 721 ft | 138 kts | 94° |
| 2026-04-16 21:38 | -0.89186 | 131.25291 | 547 ft | 138 kts | 95° |
| 2026-04-16 21:39 | -0.89249 | 131.26248 | 353 ft | 137 kts | 92° |
| 2026-04-16 21:39 | -0.89306 | 131.27191 | 170 ft | 136 kts | 93° |
| 2026-04-16 21:39 | -0.89363 | 131.28126 | 28 ft | 130 kts | 93° |
| 2026-04-16 21:39 | -0.89413 | 131.28886 | 24 ft | 85 kts | 94° |
| 2026-04-16 21:40 | -0.89443 | 131.29306 | 22 ft | 36 kts | 100° |
| 2026-04-16 21:40 | -0.89455 | 131.29410 | 23 ft | 2 kts | 357° |
| 2026-04-16 21:40 | -0.89443 | 131.29379 | 23 ft | 6 kts | 277° |
| 2026-04-16 21:40 | -0.89440 | 131.29329 | 23 ft | 8 kts | 272° |
| 2026-04-16 21:41 | -0.89438 | 131.29266 | 22 ft | 10 kts | 272° |
| 2026-04-16 21:41 | -0.89434 | 131.29189 | 21 ft | 12 kts | 277° |
| 2026-04-16 21:41 | -0.89393 | 131.29153 | 21 ft | 7 kts | 353° |
| 2026-04-16 21:41 | -0.89331 | 131.29153 | 22 ft | 10 kts | 4° |
| 2026-04-16 21:42 | -0.89275 | 131.29135 | 23 ft | 7 kts | 286° |
| 2026-04-16 21:42 | -0.89269 | 131.29086 | 23 ft | 1 kts | 275° |
| 2026-04-16 21:42 | -0.89264 | 131.29069 | 23 ft | 2 kts | 319° |
| 2026-04-16 21:42 | -0.89225 | 131.29066 | 23 ft | 7 kts | 2° |
| 2026-04-16 21:43 | -0.89182 | 131.29069 | 24 ft | 4 kts | 4° |
| 2026-04-16 21:43 | -0.89175 | 131.29071 | 24 ft | 0 kts | 4° |